createdAt,value
2022-08-08T00:00:55.782Z,101437.91
2022-08-08T00:03:32.754Z,101441.19
2022-08-08T00:07:12.418Z,101443.73
2022-08-08T00:10:17.006Z,101445.20
2022-08-08T00:14:16.953Z,101444.39
2022-08-08T00:16:43.729Z,101443.18
2022-08-08T00:19:32.953Z,101450.52
2022-08-08T00:22:23.063Z,101444.23
2022-08-08T00:25:19.876Z,101446.52
2022-08-08T00:28:33.991Z,101444.88
2022-08-08T00:32:20.810Z,101446.14
2022-08-08T00:35:04.478Z,101444.44
2022-08-08T00:38:01.273Z,101444.86
2022-08-08T00:41:21.925Z,101442.51
2022-08-08T00:44:32.967Z,101442.60
2022-08-08T00:48:05.276Z,101437.11
2022-08-08T00:51:03.096Z,101440.59
2022-08-08T00:54:04.527Z,101432.09
2022-08-08T00:57:07.955Z,101437.64
2022-08-08T01:00:23.772Z,101428.28
2022-08-08T01:03:59.628Z,101434.02
2022-08-08T01:06:42.013Z,101425.09
2022-08-08T01:09:42.137Z,101426.67
2022-08-08T01:12:53.955Z,101421.16
2022-08-08T01:15:58.750Z,101426.70
2022-08-08T01:19:25.312Z,101418.53
2022-08-08T01:22:41.845Z,101424.42
2022-08-08T01:25:55.973Z,101419.03
2022-08-08T01:28:54.976Z,101425.41
2022-08-08T01:32:15.944Z,101418.49
2022-08-08T01:35:14.925Z,101418.17
2022-08-08T01:38:14.936Z,101424.08
2022-08-08T01:41:15.914Z,101422.52
2022-08-08T01:44:39.284Z,101423.58
2022-08-08T01:48:16.991Z,101422.27
2022-08-08T01:50:57.886Z,101423.86
2022-08-08T01:55:26.799Z,101419.38
2022-08-08T01:57:23.878Z,101422.30
2022-08-08T02:00:22.946Z,101419.73
2022-08-08T02:03:55.789Z,101423.05
2022-08-08T02:06:57.914Z,101423.66
2022-08-08T02:10:03.306Z,101427.04
2022-08-08T02:13:06.936Z,101424.61
2022-08-08T02:16:06.191Z,101424.95
2022-08-08T02:19:09.958Z,101426.50
2022-08-08T02:22:45.859Z,101423.02
2022-08-08T02:25:48.765Z,101429.05
2022-08-08T02:28:55.815Z,101433.38
2022-08-08T02:32:22.849Z,101428.53
2022-08-08T02:35:30.998Z,101425.94
2022-08-08T02:38:53.078Z,101427.35
2022-08-08T02:42:04.372Z,101431.52
2022-08-08T02:44:59.935Z,101436.42
2022-08-08T02:48:13.248Z,101434.73
2022-08-08T02:51:47.605Z,101435.09
2022-08-08T02:54:51.887Z,101439.14
2022-08-08T02:58:03.898Z,101440.54
2022-08-08T03:01:15.274Z,101439.13
2022-08-08T03:05:04.906Z,101431.10
2022-08-08T03:08:15.025Z,101430.24
2022-08-08T03:11:25.564Z,101431.11
2022-08-08T03:16:00.662Z,101423.69
2022-08-08T03:17:40.825Z,101438.30
2022-08-08T03:20:25.791Z,101442.30
2022-08-08T03:23:18.080Z,101439.73
2022-08-08T03:26:13.986Z,101441.67
2022-08-08T03:29:01.133Z,101439.80
2022-08-08T03:32:18.115Z,101446.73
2022-08-08T03:35:10.772Z,101437.53
2022-08-08T03:38:53.402Z,101445.68
2022-08-08T03:42:11.520Z,101445.18
2022-08-08T03:44:35.864Z,101449.52
2022-08-08T03:47:45.136Z,101453.83
2022-08-08T03:50:31.872Z,101451.05
2022-08-08T03:53:42.305Z,101451.36
2022-08-08T03:56:37.622Z,101448.22
2022-08-08T03:59:34.751Z,101453.05
2022-08-08T04:02:52.547Z,101455.11
2022-08-08T04:05:49.787Z,101456.48
2022-08-08T04:08:41.759Z,101456.66
2022-08-08T04:11:58.191Z,101458.02
2022-08-08T04:14:50.828Z,101456.80
2022-08-08T04:17:59.399Z,101455.28
2022-08-08T04:20:50.654Z,101455.27
2022-08-08T04:24:05.602Z,101461.67
2022-08-08T04:26:58.653Z,101463.72
2022-08-08T04:29:55.210Z,101458.48
2022-08-08T04:32:51.733Z,101470.27
2022-08-08T04:35:50.640Z,101467.65
2022-08-08T04:38:42.807Z,101468.48
2022-08-08T04:41:27.012Z,101469.01
2022-08-08T04:44:27.040Z,101473.01
2022-08-08T04:47:24.423Z,101478.94
2022-08-08T04:50:25.150Z,101475.14
2022-08-08T04:54:36.572Z,101477.59
2022-08-08T04:56:44.736Z,101482.95
2022-08-08T04:59:42.485Z,101486.58
2022-08-08T05:02:30.671Z,101482.88
2022-08-08T05:05:16.218Z,101481.80
2022-08-08T05:08:21.745Z,101484.88
2022-08-08T05:11:26.413Z,101485.86
2022-08-08T05:14:23.768Z,101487.77
2022-08-08T05:17:15.854Z,101483.92
2022-08-08T05:20:15.280Z,101486.84
2022-08-08T05:23:11.736Z,101483.70
2022-08-08T05:26:09.736Z,101487.30
2022-08-08T05:29:11.814Z,101485.23
2022-08-08T05:32:05.348Z,101484.89
2022-08-08T05:35:05.234Z,101493.70
2022-08-08T05:38:05.167Z,101489.80
2022-08-08T05:41:23.343Z,101496.35
2022-08-08T05:44:20.797Z,101489.19
2022-08-08T05:47:10.769Z,101495.41
2022-08-08T05:49:54.001Z,101498.15
2022-08-08T05:52:51.805Z,101500.04
2022-08-08T05:56:10.602Z,101505.36
2022-08-08T05:59:05.926Z,101503.77
2022-08-08T06:02:30.792Z,101507.35
2022-08-08T06:05:34.815Z,101505.38
2022-08-08T06:08:34.825Z,101504.92
2022-08-08T06:11:28.151Z,101509.91
2022-08-08T06:14:25.915Z,101506.20
2022-08-08T06:17:32.074Z,101507.86
2022-08-08T06:20:39.626Z,101511.61
2022-08-08T06:23:49.030Z,101514.84
2022-08-08T06:26:54.690Z,101514.79
2022-08-08T06:30:00.890Z,101510.00
2022-08-08T06:33:00.974Z,101515.43
2022-08-08T06:36:08.947Z,101508.04
2022-08-08T06:38:50.763Z,101513.96
2022-08-08T06:41:49.006Z,101515.17
2022-08-08T06:44:46.691Z,101511.80
2022-08-08T06:47:52.580Z,101503.10
2022-08-08T06:50:58.132Z,101497.56
2022-08-08T06:53:56.407Z,101509.91
2022-08-08T06:56:51.518Z,101506.11
2022-08-08T07:00:10.399Z,101505.77
2022-08-08T07:02:54.787Z,101504.18
2022-08-08T07:06:02.378Z,101507.81
2022-08-08T07:09:01.119Z,101502.82
2022-08-08T07:12:03.720Z,101508.83
2022-08-08T07:15:15.423Z,101508.25
2022-08-08T07:18:40.579Z,101507.82
2022-08-08T07:21:37.598Z,101506.61
2022-08-08T07:24:35.827Z,101504.64
2022-08-08T07:28:01.871Z,101504.94
2022-08-08T07:30:34.814Z,101504.88
2022-08-08T07:33:28.739Z,101509.18
2022-08-08T07:36:50.545Z,101511.50
2022-08-08T07:39:57.591Z,101507.95
2022-08-08T07:42:57.105Z,101510.70
2022-08-08T07:46:17.665Z,101511.41
2022-08-08T07:49:14.343Z,101512.94
2022-08-08T07:51:53.576Z,101512.86
2022-08-08T07:54:51.665Z,101508.93
2022-08-08T07:57:56.633Z,101509.83
2022-08-08T08:00:56.954Z,101506.77
2022-08-08T08:03:45.675Z,101502.52
2022-08-08T08:06:38.553Z,101502.02
2022-08-08T08:09:33.137Z,101493.45
2022-08-08T08:12:55.844Z,101503.21
2022-08-08T08:16:03.895Z,101505.04
2022-08-08T08:18:55.970Z,101510.61
2022-08-08T08:21:53.433Z,101510.66
2022-08-08T08:24:47.569Z,101509.81
2022-08-08T08:27:35.537Z,101510.92
2022-08-08T08:30:26.467Z,101511.39
2022-08-08T08:33:33.213Z,101505.75
2022-08-08T08:36:31.844Z,101506.03
2022-08-08T08:39:59.675Z,101506.67
2022-08-08T08:42:58.781Z,101508.36
2022-08-08T08:45:58.799Z,101508.54
2022-08-08T08:49:16.866Z,101509.08
2022-08-08T08:55:31.278Z,101504.48
2022-08-08T08:58:27.169Z,101506.73
2022-08-08T09:01:27.939Z,101500.43
2022-08-08T09:04:31.233Z,101508.06
2022-08-08T09:11:03.044Z,101495.64
2022-08-08T09:13:55.807Z,101497.39
2022-08-08T09:16:56.747Z,101498.73
2022-08-08T09:21:58.127Z,101492.85
2022-08-08T09:22:43.639Z,101489.14
2022-08-08T09:25:54.611Z,101494.02
2022-08-08T09:28:50.607Z,101496.11
2022-08-08T09:31:56.181Z,101493.91
2022-08-08T09:34:54.668Z,101489.02
2022-08-08T09:38:01.131Z,101490.78
2022-08-08T09:44:12.851Z,101491.30
2022-08-08T10:17:57.553Z,101489.70
2022-08-08T10:20:41.374Z,101481.27
2022-08-08T10:23:47.143Z,101485.29
2022-08-08T10:26:58.586Z,101487.09
2022-08-08T10:29:58.284Z,101482.94
2022-08-08T10:32:56.585Z,101481.40
2022-08-08T10:36:07.700Z,101488.02
2022-08-08T10:39:05.796Z,101483.50
2022-08-08T10:42:15.376Z,101482.56
2022-08-08T10:45:09.012Z,101485.74
2022-08-08T10:48:09.606Z,101482.31
2022-08-08T10:50:59.746Z,101483.90
2022-08-08T10:53:59.570Z,101479.02
2022-08-08T10:56:59.859Z,101482.58
2022-08-08T10:59:56.448Z,101484.62
2022-08-08T11:02:53.495Z,101491.89
2022-08-08T11:05:51.794Z,101488.70
2022-08-08T11:08:57.602Z,101484.73
2022-08-08T11:12:05.994Z,101489.86
2022-08-08T11:15:10.429Z,101485.72
2022-08-08T11:18:07.402Z,101489.11
2022-08-08T11:21:09.818Z,101490.07
2022-08-08T11:24:09.014Z,101495.77
2022-08-08T11:27:10.723Z,101494.02
2022-08-08T11:30:31.823Z,101495.94
2022-08-08T11:33:51.917Z,101495.73
2022-08-08T11:36:39.581Z,101496.67
2022-08-08T11:39:36.750Z,101502.48
2022-08-08T11:42:31.048Z,101496.42
2022-08-08T11:45:29.775Z,101491.96
2022-08-08T11:48:36.559Z,101491.40
2022-08-08T11:51:39.854Z,101492.77
2022-08-08T11:54:50.531Z,101490.17
2022-08-08T11:57:53.432Z,101491.14
2022-08-08T12:00:56.791Z,101494.23
2022-08-08T12:03:47.371Z,101492.96
2022-08-08T12:06:33.797Z,101495.27
2022-08-08T12:09:40.760Z,101495.43
2022-08-08T12:12:49.633Z,101497.33
2022-08-08T12:15:50.200Z,101493.03
2022-08-08T12:18:47.581Z,101496.45
2022-08-08T12:21:59.748Z,101500.23
2022-08-08T12:24:51.305Z,101498.95
2022-08-08T12:27:53.385Z,101499.81
2022-08-08T12:30:56.653Z,101498.56
2022-08-08T12:34:02.742Z,101496.94
2022-08-08T12:44:14.658Z,101487.29
2022-08-08T12:47:58.767Z,101484.53
2022-08-08T12:50:47.102Z,101480.35
2022-08-08T12:53:45.442Z,101479.60
2022-08-08T12:56:43.505Z,101480.07
2022-08-08T13:00:05.264Z,101477.11
2022-08-08T13:03:09.539Z,101477.34
2022-08-08T13:06:13.690Z,101476.66
2022-08-08T13:09:11.568Z,101473.48
2022-08-08T13:12:27.788Z,101469.19
2022-08-08T13:15:26.644Z,101466.61
2022-08-08T13:18:27.354Z,101466.71
2022-08-08T13:21:36.478Z,101468.79
2022-08-08T13:24:48.709Z,101469.79
2022-08-08T13:27:47.512Z,101465.52
2022-08-08T13:30:43.538Z,101468.66
2022-08-08T13:33:43.418Z,101469.98
2022-08-08T13:36:42.616Z,101472.90
2022-08-08T13:39:42.607Z,101473.92
2022-08-08T13:42:26.763Z,101474.45
2022-08-08T13:45:24.882Z,101480.86
2022-08-08T13:48:25.215Z,101476.48
2022-08-08T13:51:34.118Z,101471.29
2022-08-08T13:54:44.458Z,101476.56
2022-08-08T13:58:00.792Z,101477.09
2022-08-08T14:00:54.544Z,101473.92
2022-08-08T14:03:54.226Z,101469.91
2022-08-08T14:06:51.740Z,101470.23
2022-08-08T14:10:05.635Z,101470.96
2022-08-08T14:13:30.658Z,101466.46
2022-08-08T14:16:22.412Z,101469.81
2022-08-08T14:19:55.613Z,101472.23
2022-08-08T14:22:43.000Z,101476.20
2022-08-08T14:25:40.271Z,101480.27
2022-08-08T14:28:43.312Z,101482.70
2022-08-08T14:32:10.792Z,101481.06
2022-08-08T14:34:42.264Z,101480.67
2022-08-08T14:37:43.151Z,101481.67
2022-08-08T14:40:59.432Z,101483.78
2022-08-08T14:44:09.804Z,101477.60
2022-08-08T14:47:20.930Z,101487.68
2022-08-08T14:50:38.267Z,101484.58
2022-08-08T14:53:55.047Z,101483.36
2022-08-08T14:56:53.326Z,101482.73
2022-08-08T14:59:55.853Z,101484.14
2022-08-08T15:02:58.634Z,101481.42
2022-08-08T15:06:02.409Z,101484.34
2022-08-08T15:12:44.613Z,101487.73
2022-08-08T15:16:03.254Z,101490.77
2022-08-08T15:25:40.315Z,101490.26
2022-08-08T15:28:33.891Z,101487.21
2022-08-08T15:32:19.203Z,101491.58
2022-08-08T15:35:42.004Z,101485.19
2022-08-08T15:38:34.398Z,101489.58
2022-08-08T15:45:30.003Z,101492.71
2022-08-08T15:48:21.531Z,101486.50
2022-08-08T15:51:08.034Z,101491.15
2022-08-08T15:53:49.982Z,101491.17
2022-08-08T15:57:54.765Z,101485.48
2022-08-08T16:00:28.483Z,101485.58
2022-08-08T16:04:00.541Z,101490.43
2022-08-08T16:06:54.867Z,101491.04
2022-08-08T16:13:04.464Z,101485.63
2022-08-08T16:13:27.174Z,101484.05
2022-08-08T16:15:18.142Z,101485.81
2022-08-08T16:18:05.921Z,101485.52
2022-08-08T16:20:40.961Z,101484.87
2022-08-08T16:23:17.186Z,101484.58
2022-08-08T16:25:54.631Z,101485.16
2022-08-08T16:28:36.280Z,101487.31
2022-08-08T16:31:49.642Z,101488.08
2022-08-08T16:34:24.891Z,101487.48
2022-08-08T16:36:56.173Z,101488.04
2022-08-08T16:40:01.164Z,101487.42
2022-08-08T16:42:25.053Z,101490.38
2022-08-08T16:49:50.283Z,101488.46
2022-08-08T16:55:00.973Z,101491.34
2022-08-08T16:55:33.571Z,101489.64
2022-08-08T16:58:14.268Z,101493.19
2022-08-08T17:00:54.551Z,101496.58
2022-08-08T17:03:58.032Z,101496.66
2022-08-08T17:06:36.032Z,101500.05
2022-08-08T17:09:15.877Z,101501.55
2022-08-08T17:16:14.911Z,101506.92
2022-08-08T17:18:49.440Z,101507.54
2022-08-08T17:21:26.005Z,101512.53
2022-08-08T17:24:00.066Z,101513.09
2022-08-08T17:26:53.797Z,101509.78
2022-08-08T17:29:33.962Z,101510.54
2022-08-08T17:32:07.805Z,101512.54
2022-08-08T17:34:53.831Z,101514.17
2022-08-08T17:37:31.544Z,101516.55
2022-08-08T17:40:19.447Z,101519.08
2022-08-08T17:42:51.266Z,101521.38
2022-08-08T17:45:24.121Z,101522.05
2022-08-08T17:47:56.688Z,101524.78
2022-08-08T17:50:30.090Z,101524.89
2022-08-08T17:53:01.973Z,101525.10
2022-08-08T17:56:05.690Z,101531.49
2022-08-08T17:58:32.567Z,101530.70
2022-08-08T18:01:03.584Z,101528.14
2022-08-08T18:03:53.441Z,101528.91
2022-08-08T18:06:30.726Z,101528.98
2022-08-08T18:09:09.060Z,101535.53
2022-08-08T18:11:54.373Z,101535.42
2022-08-08T18:14:35.435Z,101533.22
2022-08-08T18:18:09.446Z,101530.52
2022-08-08T18:21:58.778Z,101536.92
2022-08-08T18:24:35.074Z,101537.73
2022-08-08T18:27:17.295Z,101541.29
2022-08-08T18:29:53.161Z,101545.36
2022-08-08T18:32:24.020Z,101548.58
2022-08-08T18:43:43.337Z,101556.30
2022-08-08T18:46:56.075Z,101563.08
2022-08-08T18:49:14.695Z,101563.13
2022-08-08T18:51:52.424Z,101565.45
2022-08-08T18:54:30.011Z,101567.98
2022-08-08T18:57:02.306Z,101568.75
2022-08-08T18:59:40.729Z,101573.39
2022-08-08T19:06:11.625Z,101574.73
2022-08-08T19:08:43.833Z,101574.65
2022-08-08T19:11:17.478Z,101577.54
2022-08-08T19:14:01.068Z,101576.20
2022-08-08T19:16:42.085Z,101578.20
2022-08-08T19:19:18.318Z,101577.44
2022-08-08T19:21:50.645Z,101575.77
2022-08-08T19:24:43.773Z,101575.48
2022-08-08T19:31:13.079Z,101578.79
2022-08-08T19:34:04.928Z,101584.31
2022-08-08T19:36:39.200Z,101587.35
2022-08-08T19:46:15.339Z,101588.73
2022-08-08T19:48:55.848Z,101597.35
2022-08-08T19:51:34.670Z,101599.63
2022-08-08T19:54:15.091Z,101600.73
2022-08-08T19:56:48.755Z,101604.45
2022-08-08T19:59:22.428Z,101605.89
2022-08-08T20:02:11.904Z,101606.61
2022-08-08T20:04:57.586Z,101606.98
2022-08-08T20:08:28.248Z,101611.55
2022-08-08T20:10:19.518Z,101613.02
2022-08-08T20:14:12.604Z,101613.73
2022-08-08T20:16:29.520Z,101614.13
2022-08-08T20:19:01.602Z,101614.35
2022-08-08T20:21:37.902Z,101616.30
2022-08-08T20:24:11.123Z,101616.17
2022-08-08T20:26:47.264Z,101617.45
2022-08-08T20:29:45.833Z,101621.17
2022-08-08T20:32:31.958Z,101619.81
2022-08-08T20:35:04.379Z,101620.38
2022-08-08T20:37:46.822Z,101623.89
2022-08-08T20:40:33.743Z,101620.30
2022-08-08T20:43:16.445Z,101625.55
2022-08-08T20:46:11.414Z,101622.98
2022-08-08T20:48:42.089Z,101626.85
2022-08-08T20:51:14.320Z,101627.95
2022-08-08T20:54:00.758Z,101627.80
2022-08-08T20:57:05.718Z,101627.48
2022-08-08T20:59:25.577Z,101627.48
2022-08-08T21:02:06.489Z,101629.09
2022-08-08T21:04:38.364Z,101629.11
2022-08-08T21:07:13.915Z,101630.73
2022-08-08T21:10:01.809Z,101629.73
2022-08-08T21:12:36.664Z,101630.85
2022-08-08T21:15:11.178Z,101631.45
2022-08-08T21:17:56.216Z,101633.05
2022-08-08T21:20:34.015Z,101634.88
2022-08-08T21:23:08.966Z,101637.42
2022-08-08T21:25:42.449Z,101633.14
2022-08-08T21:34:41.318Z,101638.14
2022-08-08T21:37:23.297Z,101639.95
2022-08-08T21:40:14.294Z,101638.06
2022-08-08T21:43:14.132Z,101639.33
2022-08-08T21:48:06.011Z,101639.71
2022-08-08T21:48:41.466Z,101643.80
2022-08-08T21:51:15.081Z,101643.68
2022-08-08T21:55:02.398Z,101642.52
2022-08-08T21:57:24.729Z,101641.93
2022-08-08T22:00:02.277Z,101639.15
2022-08-08T22:02:45.329Z,101643.90
2022-08-08T22:05:24.155Z,101642.70
2022-08-08T22:07:58.572Z,101644.67
2022-08-08T22:10:32.769Z,101639.48
2022-08-08T22:13:17.680Z,101641.60
2022-08-08T22:15:58.905Z,101639.23
2022-08-08T22:18:34.197Z,101639.27
2022-08-08T22:21:13.972Z,101638.29
2022-08-08T22:23:53.766Z,101633.42
2022-08-08T22:26:30.940Z,101634.36
2022-08-08T22:29:56.708Z,101634.27
2022-08-08T22:31:58.299Z,101635.52
2022-08-08T22:34:39.170Z,101638.00
2022-08-08T22:37:14.652Z,101636.10
2022-08-08T22:40:00.135Z,101631.94
2022-08-08T22:42:34.961Z,101634.07
2022-08-08T22:45:12.914Z,101632.86
2022-08-08T22:47:48.758Z,101633.56
2022-08-08T22:50:40.520Z,101633.41
2022-08-08T22:54:30.505Z,101638.33
2022-08-08T22:56:02.246Z,101637.49
2022-08-08T22:58:35.617Z,101637.50
2022-08-08T23:01:16.490Z,101637.85
2022-08-08T23:04:04.557Z,101637.34
2022-08-08T23:06:36.006Z,101634.18
2022-08-08T23:09:09.488Z,101634.00
2022-08-08T23:12:28.861Z,101636.63
2022-08-08T23:15:10.667Z,101637.33
2022-08-08T23:17:53.912Z,101640.14
2022-08-08T23:20:27.346Z,101645.73
2022-08-08T23:23:31.509Z,101645.73
2022-08-08T23:26:04.936Z,101645.73
2022-08-08T23:28:39.434Z,101644.84
2022-08-08T23:31:10.614Z,101643.09
2022-08-08T23:34:17.256Z,101643.98
2022-08-08T23:36:52.826Z,101643.27
2022-08-08T23:39:42.037Z,101642.75
2022-08-08T23:42:21.401Z,101646.60
2022-08-08T23:45:12.789Z,101647.14
2022-08-08T23:49:00.411Z,101649.92
2022-08-08T23:50:34.204Z,101647.86
2022-08-08T23:53:07.654Z,101646.83
2022-08-08T23:56:24.123Z,101646.66
2022-08-08T23:59:03.560Z,101644.40
